createdAt,value
2019-03-27T00:00:27.056Z,57.70
2019-03-27T00:03:04.813Z,57.60
2019-03-27T00:05:35.141Z,59.10
2019-03-27T00:08:04.038Z,58.60
2019-03-27T00:10:32.887Z,57.90
2019-03-27T00:13:01.783Z,57.90
2019-03-27T00:15:30.655Z,57.40
2019-03-27T00:17:59.475Z,57.90
2019-03-27T00:20:28.476Z,57.90
2019-03-27T00:22:57.317Z,57.40
2019-03-27T00:25:26.172Z,57.10
2019-03-27T00:27:55.321Z,57.00
2019-03-27T00:30:24.170Z,56.70
2019-03-27T00:32:54.101Z,56.70
2019-03-27T00:35:25.585Z,56.40
2019-03-27T00:37:54.819Z,56.30
2019-03-27T00:40:23.705Z,56.20
2019-03-27T00:42:52.628Z,56.90
2019-03-27T00:45:26.711Z,57.00
2019-03-27T00:47:52.069Z,57.10
2019-03-27T00:50:21.061Z,58.00
2019-03-27T00:52:49.940Z,57.90
2019-03-27T00:55:18.884Z,58.20
2019-03-27T00:57:49.491Z,58.30
2019-03-27T01:00:51.286Z,57.80
2019-03-27T01:03:29.026Z,58.10
2019-03-27T01:05:57.576Z,58.10
2019-03-27T01:08:29.672Z,58.60
2019-03-27T01:11:00.051Z,58.70
2019-03-27T01:13:28.917Z,59.10
2019-03-27T01:15:57.955Z,58.70
2019-03-27T01:18:26.855Z,58.90
2019-03-27T01:20:55.721Z,58.90
2019-03-27T01:23:24.715Z,57.70
2019-03-27T01:25:53.604Z,57.60
2019-03-27T01:28:22.488Z,58.40
2019-03-27T01:30:52.717Z,58.20
2019-03-27T01:33:21.546Z,58.40
2019-03-27T01:35:50.411Z,58.20
2019-03-27T01:38:19.454Z,57.90
2019-03-27T01:40:49.683Z,57.60
2019-03-27T01:43:18.524Z,57.40
2019-03-27T01:45:52.989Z,58.00
2019-03-27T01:48:23.623Z,58.70
2019-03-27T01:50:58.511Z,59.50
2019-03-27T01:53:27.179Z,60.70
2019-03-27T01:55:57.354Z,61.20
2019-03-27T01:58:26.107Z,60.40
2019-03-27T02:00:56.967Z,60.50
2019-03-27T02:03:25.896Z,60.60
2019-03-27T02:05:54.742Z,59.70
2019-03-27T02:08:26.210Z,58.30
2019-03-27T02:10:55.012Z,57.90
2019-03-27T02:13:23.870Z,58.30
2019-03-27T02:16:05.853Z,58.40
2019-03-27T02:18:26.003Z,58.00
2019-03-27T02:20:57.463Z,58.30
2019-03-27T02:23:27.873Z,58.00
2019-03-27T02:25:56.947Z,57.50
2019-03-27T02:28:29.737Z,57.30
2019-03-27T02:30:58.700Z,57.30
2019-03-27T02:33:27.687Z,57.70
2019-03-27T02:35:56.538Z,57.60
2019-03-27T02:38:25.579Z,57.80
2019-03-27T02:40:56.004Z,57.80
2019-03-27T02:43:24.809Z,57.80
2019-03-27T02:45:56.307Z,57.70
2019-03-27T02:48:25.158Z,57.60
2019-03-27T02:50:54.083Z,58.10
2019-03-27T02:53:23.113Z,58.20
2019-03-27T02:55:51.924Z,58.10
2019-03-27T02:58:20.857Z,58.10
2019-03-27T03:00:53.206Z,58.50
2019-03-27T03:03:22.670Z,58.90
2019-03-27T03:05:53.099Z,58.80
2019-03-27T03:08:24.304Z,58.70
2019-03-27T03:10:53.073Z,58.90
2019-03-27T03:13:22.049Z,58.30
2019-03-27T03:15:50.834Z,58.40
2019-03-27T03:18:19.660Z,58.30
2019-03-27T03:20:48.912Z,58.40
2019-03-27T03:23:17.842Z,59.40
2019-03-27T03:25:46.759Z,59.70
2019-03-27T03:28:15.763Z,59.00
2019-03-27T03:30:44.717Z,59.50
2019-03-27T03:33:13.569Z,60.10
2019-03-27T03:35:42.586Z,60.90
2019-03-27T03:38:11.338Z,61.10
2019-03-27T03:40:40.242Z,60.50
2019-03-27T03:43:09.335Z,60.60
2019-03-27T03:45:38.150Z,61.10
2019-03-27T03:48:09.779Z,61.60
2019-03-27T03:50:43.788Z,61.90
2019-03-27T03:53:14.191Z,61.90
2019-03-27T03:55:43.643Z,60.90
2019-03-27T03:58:14.768Z,61.40
2019-03-27T04:00:43.821Z,61.30
2019-03-27T04:03:13.712Z,62.00
2019-03-27T04:05:42.772Z,61.70
2019-03-27T04:08:12.005Z,62.20
2019-03-27T04:10:41.006Z,62.30
2019-03-27T04:13:11.485Z,63.00
2019-03-27T04:15:40.441Z,63.30
2019-03-27T04:18:09.394Z,62.30
2019-03-27T04:20:38.334Z,62.80
2019-03-27T04:23:07.196Z,63.10
2019-03-27T04:26:06.342Z,62.70
2019-03-27T04:28:06.664Z,62.90
2019-03-27T04:30:35.700Z,63.70
2019-03-27T04:33:06.284Z,63.40
2019-03-27T04:35:35.276Z,63.80
2019-03-27T04:38:21.706Z,63.90
2019-03-27T04:40:50.699Z,63.70
2019-03-27T04:43:21.299Z,64.40
2019-03-27T04:45:50.205Z,64.40
2019-03-27T04:48:19.450Z,64.50
2019-03-27T04:50:48.349Z,63.80
2019-03-27T04:53:17.299Z,63.80
2019-03-27T04:55:47.752Z,63.80
2019-03-27T04:58:16.578Z,63.70
2019-03-27T05:00:46.380Z,63.70
2019-03-27T05:03:15.661Z,63.90
2019-03-27T05:05:44.560Z,64.20
2019-03-27T05:08:13.381Z,64.30
2019-03-27T05:10:42.208Z,64.30
2019-03-27T05:13:11.219Z,64.20
2019-03-27T05:15:40.029Z,64.40
2019-03-27T05:18:09.176Z,64.30
2019-03-27T05:20:37.990Z,64.40
2019-03-27T05:23:09.972Z,64.90
2019-03-27T05:25:38.736Z,65.30
2019-03-27T05:28:07.721Z,66.00
2019-03-27T05:30:36.743Z,66.30
2019-03-27T05:33:05.597Z,66.70
2019-03-27T05:35:34.489Z,66.80
2019-03-27T05:38:03.448Z,67.20
2019-03-27T05:40:32.361Z,67.40
2019-03-27T05:43:04.051Z,67.60
2019-03-27T05:45:35.398Z,68.00
2019-03-27T05:48:04.205Z,68.50
2019-03-27T05:51:00.161Z,68.40
2019-03-27T05:53:29.126Z,68.40
2019-03-27T05:55:58.071Z,69.00
2019-03-27T05:58:27.097Z,69.60
2019-03-27T06:00:57.595Z,70.00
2019-03-27T06:03:26.488Z,70.50
2019-03-27T06:05:55.525Z,70.90
2019-03-27T06:08:24.618Z,71.50
2019-03-27T06:10:53.432Z,71.80
2019-03-27T06:13:22.411Z,72.00
2019-03-27T06:15:53.786Z,71.90
2019-03-27T06:18:22.620Z,72.40
2019-03-27T06:20:51.718Z,72.70
2019-03-27T06:23:20.582Z,72.60
2019-03-27T06:25:49.603Z,72.80
2019-03-27T06:28:18.659Z,73.00
2019-03-27T06:30:47.405Z,72.70
2019-03-27T06:33:18.754Z,72.60
2019-03-27T06:35:47.733Z,73.20
2019-03-27T06:38:16.595Z,73.50
2019-03-27T06:40:45.482Z,74.00
2019-03-27T06:43:14.867Z,74.30
2019-03-27T06:45:43.731Z,74.70
2019-03-27T06:48:25.506Z,74.90
2019-03-27T06:50:44.163Z,75.40
2019-03-27T06:53:13.043Z,76.20
2019-03-27T06:55:42.856Z,76.70
2019-03-27T06:58:11.839Z,76.90
2019-03-27T07:00:40.989Z,77.80
2019-03-27T07:03:09.905Z,78.20
2019-03-27T07:05:38.855Z,78.70
2019-03-27T07:08:09.191Z,79.30
2019-03-27T07:10:38.063Z,80.00
2019-03-27T07:13:11.293Z,80.50
2019-03-27T07:15:41.653Z,80.40
2019-03-27T07:18:10.483Z,81.00
2019-03-27T07:24:04.463Z,80.40
2019-03-27T07:26:36.293Z,80.60
2019-03-27T07:29:07.803Z,80.30
2019-03-27T07:31:37.350Z,80.40
2019-03-27T07:34:07.653Z,80.40
2019-03-27T07:36:36.492Z,80.10
2019-03-27T07:39:11.227Z,80.10
2019-03-27T07:41:41.368Z,80.50
2019-03-27T07:44:10.337Z,80.50
2019-03-27T07:46:39.254Z,80.30
2019-03-27T07:49:08.139Z,80.40
2019-03-27T07:51:40.159Z,80.50
2019-03-27T07:54:09.023Z,80.30
2019-03-27T07:56:39.860Z,80.50
2019-03-27T07:59:08.805Z,80.00
2019-03-27T08:01:43.351Z,79.90
2019-03-27T08:04:14.429Z,79.80
2019-03-27T08:06:46.983Z,79.90
2019-03-27T08:09:17.471Z,79.40
2019-03-27T08:12:24.410Z,79.20
2019-03-27T08:15:09.881Z,79.00
2019-03-27T08:21:12.204Z,79.50
2019-03-27T08:23:28.789Z,79.90
2019-03-27T08:25:57.836Z,80.20
2019-03-27T08:28:30.367Z,79.50
2019-03-27T08:31:03.776Z,79.80
2019-03-27T08:33:35.165Z,79.40
2019-03-27T08:36:04.271Z,79.40
2019-03-27T08:38:35.962Z,78.90
2019-03-27T08:41:04.900Z,79.00
2019-03-27T08:43:33.754Z,79.00
2019-03-27T08:46:02.599Z,78.90
2019-03-27T08:48:39.014Z,78.40
2019-03-27T08:54:27.522Z,78.80
2019-03-27T08:56:57.384Z,79.10
2019-03-27T08:59:32.269Z,79.20
2019-03-27T09:01:59.623Z,79.20
2019-03-27T09:04:28.497Z,79.40
2019-03-27T09:07:08.797Z,80.10
2019-03-27T09:09:46.881Z,80.20
2019-03-27T09:12:18.089Z,80.30
2019-03-27T09:14:47.549Z,80.20
2019-03-27T09:17:24.791Z,80.30
2019-03-27T09:32:05.580Z,78.90
2019-03-27T09:34:54.525Z,77.90
2019-03-27T09:37:23.101Z,77.00
2019-03-27T09:39:53.557Z,77.50
2019-03-27T09:42:29.675Z,77.20
2019-03-27T09:44:58.604Z,77.00
2019-03-27T09:47:27.527Z,76.50
2019-03-27T09:49:58.275Z,76.30
2019-03-27T09:52:27.285Z,75.30
2019-03-27T09:54:56.204Z,75.30
2019-03-27T09:57:25.055Z,74.40
2019-03-27T09:59:54.041Z,75.30
2019-03-27T10:02:27.299Z,75.90
2019-03-27T10:04:56.398Z,76.20
2019-03-27T10:07:25.321Z,75.40
2019-03-27T10:09:54.197Z,76.40
2019-03-27T10:12:23.187Z,77.10
2019-03-27T10:14:52.110Z,76.90
2019-03-27T10:17:21.044Z,76.10
2019-03-27T10:20:02.751Z,76.00
2019-03-27T10:22:23.458Z,77.20
2019-03-27T10:24:52.324Z,77.90
2019-03-27T10:27:22.959Z,76.80
2019-03-27T10:29:56.308Z,76.60
2019-03-27T10:32:25.154Z,76.70
2019-03-27T10:34:53.983Z,75.90
2019-03-27T10:37:22.956Z,74.50
2019-03-27T10:39:51.890Z,73.00
2019-03-27T10:42:20.701Z,73.30
2019-03-27T10:44:55.301Z,72.40
2019-03-27T10:47:25.806Z,70.80
2019-03-27T10:49:54.802Z,70.20
2019-03-27T10:52:23.868Z,69.30
2019-03-27T10:55:21.749Z,69.80
2019-03-27T10:57:50.158Z,69.40
2019-03-27T11:00:19.314Z,67.40
2019-03-27T11:02:49.618Z,65.40
2019-03-27T11:05:18.782Z,64.40
2019-03-27T11:11:17.122Z,65.90
2019-03-27T11:13:48.888Z,65.80
2019-03-27T11:16:19.256Z,64.30
2019-03-27T11:18:49.663Z,64.70
2019-03-27T11:21:21.607Z,63.20
2019-03-27T11:23:50.614Z,60.30
2019-03-27T11:26:25.255Z,61.00
2019-03-27T11:28:54.087Z,60.50
2019-03-27T11:31:27.634Z,61.70
2019-03-27T11:33:56.315Z,61.50
2019-03-27T11:36:28.701Z,60.70
2019-03-27T11:38:58.698Z,61.20
2019-03-27T11:41:31.909Z,59.60
2019-03-27T11:44:04.046Z,60.00
2019-03-27T11:46:34.346Z,59.40
2019-03-27T11:49:03.162Z,58.60
2019-03-27T11:54:50.855Z,57.00
2019-03-27T11:57:19.916Z,58.80
2019-03-27T11:59:54.048Z,60.50
2019-03-27T12:02:20.000Z,61.20
2019-03-27T12:04:51.985Z,59.70
2019-03-27T12:07:27.116Z,59.20
2019-03-27T12:10:02.906Z,58.90
2019-03-27T12:12:34.812Z,57.60
2019-03-27T12:15:08.396Z,56.30
2019-03-27T12:17:37.277Z,56.50
2019-03-27T12:20:07.855Z,56.20
2019-03-27T12:22:41.026Z,56.10
2019-03-27T12:25:15.371Z,56.30
2019-03-27T12:27:47.213Z,56.40
2019-03-27T12:30:16.325Z,56.30
2019-03-27T12:32:53.898Z,55.00
2019-03-27T12:35:22.846Z,55.30
2019-03-27T12:37:53.370Z,54.20
2019-03-27T12:40:25.363Z,53.50
2019-03-27T12:43:00.459Z,54.00
2019-03-27T12:45:29.727Z,55.30
2019-03-27T12:47:58.551Z,55.30
2019-03-27T12:50:27.414Z,55.40
2019-03-27T12:52:59.244Z,54.60
2019-03-27T12:55:35.207Z,54.10
2019-03-27T12:58:03.290Z,53.90
2019-03-27T13:00:32.134Z,53.40
2019-03-27T13:03:00.986Z,54.30
2019-03-27T13:05:31.448Z,54.30
2019-03-27T13:08:00.363Z,53.80
2019-03-27T13:10:29.215Z,53.90
2019-03-27T13:12:59.869Z,51.70
2019-03-27T13:15:31.187Z,50.70
2019-03-27T13:18:01.676Z,50.60
2019-03-27T13:20:33.369Z,49.40
2019-03-27T13:23:05.060Z,49.10
2019-03-27T13:28:31.065Z,51.50
2019-03-27T13:30:59.960Z,50.80
2019-03-27T13:33:30.371Z,47.40
2019-03-27T13:35:59.348Z,50.30
2019-03-27T13:38:32.417Z,50.40
2019-03-27T13:41:06.007Z,50.80
2019-03-27T13:43:38.292Z,51.70
2019-03-27T13:46:07.163Z,50.30
2019-03-27T13:48:37.631Z,49.50
2019-03-27T13:51:09.147Z,48.30
2019-03-27T13:53:37.977Z,51.60
2019-03-27T13:56:07.192Z,51.40
2019-03-27T13:58:36.155Z,50.50
2019-03-27T14:01:12.771Z,51.20
2019-03-27T14:03:40.185Z,50.50
2019-03-27T14:06:09.061Z,50.20
2019-03-27T14:08:44.019Z,51.30
2019-03-27T14:11:08.643Z,49.70
2019-03-27T14:13:44.847Z,49.50
2019-03-27T14:16:28.490Z,51.80
2019-03-27T14:19:22.484Z,52.60
2019-03-27T14:21:54.903Z,52.00
2019-03-27T14:24:24.772Z,51.50
2019-03-27T14:26:58.077Z,50.10
2019-03-27T14:29:28.632Z,50.80
2019-03-27T14:31:57.466Z,50.50
2019-03-27T14:34:28.969Z,51.20
2019-03-27T14:36:59.358Z,51.20
2019-03-27T14:42:34.834Z,51.20
2019-03-27T14:45:21.657Z,51.70
2019-03-27T14:47:52.393Z,52.00
2019-03-27T14:50:26.292Z,51.60
2019-03-27T14:52:55.121Z,50.10
2019-03-27T14:55:28.817Z,50.20
2019-03-27T14:58:03.352Z,49.00
2019-03-27T15:00:41.509Z,48.10
2019-03-27T15:03:10.713Z,49.60
2019-03-27T15:05:45.464Z,50.70
2019-03-27T15:08:20.567Z,50.80
2019-03-27T15:10:53.505Z,49.70
2019-03-27T15:13:30.970Z,50.60
2019-03-27T15:16:03.050Z,47.60
2019-03-27T15:18:32.189Z,51.20
2019-03-27T15:21:01.021Z,51.80
2019-03-27T15:23:29.912Z,52.00
2019-03-27T15:26:04.578Z,50.90
2019-03-27T15:28:37.814Z,47.80
2019-03-27T15:31:20.337Z,47.00
2019-03-27T15:33:41.637Z,49.80
2019-03-27T15:36:15.311Z,50.90
2019-03-27T15:38:44.182Z,50.80
2019-03-27T15:41:13.098Z,51.20
2019-03-27T15:43:43.297Z,51.70
2019-03-27T15:46:12.142Z,46.90
2019-03-27T15:48:41.025Z,45.60
2019-03-27T15:51:16.109Z,46.30
2019-03-27T15:53:49.638Z,46.60
2019-03-27T15:56:24.070Z,50.60
2019-03-27T15:58:56.075Z,50.30
2019-03-27T16:01:23.996Z,51.30
2019-03-27T16:03:52.884Z,49.00
2019-03-27T16:06:26.343Z,47.50
2019-03-27T16:08:58.176Z,47.80
2019-03-27T16:11:31.655Z,48.90
2019-03-27T16:14:00.553Z,48.60
2019-03-27T16:16:32.800Z,49.10
2019-03-27T16:19:03.643Z,50.50
2019-03-27T16:21:32.127Z,48.90
2019-03-27T16:24:06.683Z,49.70
2019-03-27T16:26:31.771Z,50.40
2019-03-27T16:29:00.722Z,51.00
2019-03-27T16:31:29.859Z,50.70
2019-03-27T16:33:58.696Z,50.40
2019-03-27T16:36:27.584Z,50.40
2019-03-27T16:38:58.011Z,50.90
2019-03-27T16:41:29.589Z,50.90
2019-03-27T16:43:58.628Z,51.70
2019-03-27T16:46:27.658Z,52.50
2019-03-27T16:48:58.563Z,52.80
2019-03-27T16:51:27.319Z,52.80
2019-03-27T16:53:56.345Z,53.40
2019-03-27T16:56:25.224Z,54.20
2019-03-27T16:58:54.058Z,54.80
2019-03-27T17:01:23.057Z,55.50
2019-03-27T17:03:53.476Z,56.00
2019-03-27T17:06:22.430Z,57.60
2019-03-27T17:08:54.229Z,58.10
2019-03-27T17:11:24.547Z,58.40
2019-03-27T17:13:55.017Z,58.50
2019-03-27T17:16:25.439Z,58.90
2019-03-27T17:18:55.903Z,58.90
2019-03-27T17:21:24.721Z,58.90
2019-03-27T17:24:01.090Z,59.00
2019-03-27T17:26:29.882Z,59.00
2019-03-27T17:28:58.681Z,60.10
2019-03-27T17:31:29.133Z,59.70
2019-03-27T17:34:01.016Z,60.00
2019-03-27T17:36:30.123Z,60.50
2019-03-27T17:39:00.633Z,60.00
2019-03-27T17:41:31.187Z,60.10
2019-03-27T17:43:59.988Z,60.00
2019-03-27T17:46:29.016Z,60.30
2019-03-27T17:49:02.168Z,60.50
2019-03-27T17:51:34.100Z,60.80
2019-03-27T17:54:19.593Z,60.30
2019-03-27T17:56:49.662Z,60.60
2019-03-27T17:59:27.464Z,60.30
2019-03-27T18:02:16.852Z,60.30
2019-03-27T18:05:15.471Z,60.60
2019-03-27T18:08:01.306Z,61.10
2019-03-27T18:10:42.832Z,61.00
2019-03-27T18:13:10.028Z,61.10
2019-03-27T18:15:45.997Z,60.10
2019-03-27T18:18:28.008Z,60.20
2019-03-27T18:21:01.181Z,61.10
2019-03-27T18:23:45.387Z,61.60
2019-03-27T18:26:12.523Z,61.30
2019-03-27T18:31:28.507Z,61.40
2019-03-27T18:33:59.229Z,60.90
2019-03-27T18:36:27.798Z,59.80
2019-03-27T18:38:56.813Z,60.10
2019-03-27T18:41:32.702Z,61.10
2019-03-27T18:44:03.530Z,60.90
2019-03-27T18:46:38.455Z,60.60
2019-03-27T18:49:10.558Z,60.80
2019-03-27T18:51:42.363Z,61.40
2019-03-27T18:54:12.958Z,61.40
2019-03-27T18:56:50.772Z,61.90
2019-03-27T18:59:19.257Z,62.10
2019-03-27T19:01:48.074Z,61.80
2019-03-27T19:04:17.072Z,62.20
2019-03-27T19:07:12.399Z,62.80
2019-03-27T19:09:44.028Z,63.20
2019-03-27T19:12:19.739Z,63.20
2019-03-27T19:15:04.995Z,63.20
2019-03-27T19:17:53.273Z,63.90
2019-03-27T19:20:43.422Z,63.60
2019-03-27T19:23:25.827Z,63.90
2019-03-27T19:26:12.252Z,64.50
2019-03-27T19:28:42.879Z,64.30
2019-03-27T19:31:11.822Z,64.90
2019-03-27T19:33:40.657Z,65.10
2019-03-27T19:36:11.479Z,64.90
2019-03-27T19:38:40.112Z,64.90
2019-03-27T19:41:08.947Z,65.00
2019-03-27T19:43:37.718Z,64.80
2019-03-27T19:46:09.447Z,64.90
2019-03-27T19:48:38.379Z,65.30
2019-03-27T19:51:11.116Z,65.30
2019-03-27T19:56:46.254Z,65.40
2019-03-27T19:59:53.342Z,65.60
2019-03-27T20:02:51.680Z,65.60
2019-03-27T20:05:36.572Z,65.60
2019-03-27T20:11:12.999Z,65.80
2019-03-27T20:19:43.973Z,66.10
2019-03-27T20:22:59.110Z,65.80
2019-03-27T20:25:23.591Z,66.20
2019-03-27T20:28:06.207Z,66.40
2019-03-27T20:30:53.576Z,66.30
2019-03-27T20:34:05.345Z,66.60
2019-03-27T20:36:35.742Z,66.50
2019-03-27T20:38:49.771Z,67.00
2019-03-27T20:41:18.807Z,67.30
2019-03-27T20:43:47.612Z,67.30
2019-03-27T20:46:24.945Z,67.70
2019-03-27T20:48:47.038Z,67.80
2019-03-27T20:51:15.871Z,67.70
2019-03-27T20:53:46.369Z,67.50
2019-03-27T20:56:15.226Z,67.60
2019-03-27T20:58:44.017Z,67.80
2019-03-27T21:01:14.438Z,68.00
2019-03-27T21:03:43.347Z,68.00
2019-03-27T21:06:13.644Z,67.60
2019-03-27T21:08:44.027Z,68.10
2019-03-27T21:11:16.323Z,68.50
2019-03-27T21:13:44.842Z,68.70
2019-03-27T21:16:13.837Z,68.60
2019-03-27T21:18:48.054Z,68.70
2019-03-27T21:21:18.801Z,68.80
2019-03-27T21:23:47.661Z,69.30
2019-03-27T21:26:19.728Z,69.60
2019-03-27T21:28:48.622Z,69.60
2019-03-27T21:31:19.009Z,69.70
2019-03-27T21:33:50.442Z,69.50
2019-03-27T21:36:20.774Z,69.30
2019-03-27T21:38:49.980Z,69.60
2019-03-27T21:41:19.149Z,69.80
2019-03-27T21:43:53.651Z,69.80
2019-03-27T21:46:22.630Z,69.70
2019-03-27T21:48:59.024Z,69.80
2019-03-27T21:51:27.881Z,69.80
2019-03-27T21:53:56.746Z,69.90
2019-03-27T21:56:25.870Z,70.20
2019-03-27T21:58:54.710Z,70.50
2019-03-27T22:01:23.573Z,70.40
2019-03-27T22:07:50.467Z,71.00
2019-03-27T22:10:38.889Z,71.00
2019-03-27T22:13:09.067Z,71.10
2019-03-27T22:15:58.993Z,71.10
2019-03-27T22:30:44.208Z,71.50
2019-03-27T22:42:56.737Z,72.00
2019-03-27T22:45:42.496Z,73.40
2019-03-27T22:48:20.164Z,72.70
2019-03-27T22:54:05.462Z,72.70
2019-03-27T23:11:53.676Z,72.10
2019-03-27T23:14:38.636Z,72.10
2019-03-27T23:17:04.137Z,72.50
2019-03-27T23:22:34.615Z,73.00
2019-03-27T23:25:09.785Z,73.10
2019-03-27T23:27:38.691Z,73.20
2019-03-27T23:30:09.944Z,73.10
2019-03-27T23:32:38.877Z,73.00
2019-03-27T23:35:08.421Z,73.20
2019-03-27T23:37:37.484Z,73.20
2019-03-27T23:40:07.198Z,73.30
2019-03-27T23:42:36.174Z,73.60
2019-03-27T23:45:06.433Z,73.50
2019-03-27T23:47:36.878Z,73.50
2019-03-27T23:50:08.596Z,73.70
2019-03-27T23:52:37.672Z,73.50
2019-03-27T23:55:07.220Z,73.30
2019-03-27T23:57:36.297Z,73.80
